Time;durP1;ratioP1;P1;durP2;ratioP2;P2;SDS_P1;SDS_P2;PMS_P1;PMS_P2;Temp;Humidity;BMP_temperature;BMP_pressure;BME280_temperature;BME280_humidity;BME280_pressure;Samples;Min_cycle;Max_cycle;Signal;HPM_P1;HPM_P2
2022/01/01 00:01:41;;;;;;;34.72;17.98;;;;;;;16.67;61.59;102248.31;4948833;28;114225;-68
2022/01/01 00:04:09;;;;;;;30.70;16.10;;;;;;;16.66;61.55;102246.59;4948734;28;115353;-68
2022/01/01 00:06:37;;;;;;;34.38;16.48;;;;;;;16.66;61.63;102246.59;4948125;28;124146;-68
2022/01/01 00:09:04;;;;;;;31.40;16.75;;;;;;;16.66;61.61;102241.25;4948568;28;123929;-67
2022/01/01 00:11:31;;;;;;;29.80;14.80;;;;;;;16.67;61.81;102242.94;4947684;28;114780;-68
2022/01/01 00:13:58;;;;;;;27.55;14.90;;;;;;;16.65;61.69;102234.13;4948781;28;114228;-68
2022/01/01 00:16:30;;;;;;;30.30;14.57;;;;;;;16.65;61.77;102234.13;4947824;28;124164;-68
2022/01/01 00:18:57;;;;;;;43.88;19.17;;;;;;;16.64;61.78;102243.13;4947509;28;123272;-69
2022/01/01 00:21:25;;;;;;;30.75;15.48;;;;;;;16.64;61.68;102248.47;4948307;28;115084;-68
2022/01/01 00:23:52;;;;;;;28.42;15.52;;;;;;;16.64;61.88;102253.81;4947553;28;114096;-68
2022/01/01 00:26:20;;;;;;;31.95;16.35;;;;;;;16.64;61.89;102243.13;4948285;28;124826;-68
2022/01/01 00:28:48;;;;;;;39.97;19.60;;;;;;;16.64;61.92;102238.63;4945948;28;123783;-68
2022/01/01 00:31:15;;;;;;;41.25;19.17;;;;;;;16.65;61.84;102236.81;4948164;28;114126;-68
2022/01/01 00:33:42;;;;;;;37.45;20.88;;;;;;;16.66;61.91;102246.59;4948508;28;113840;-69
2022/01/01 00:36:09;;;;;;;44.88;23.33;;;;;;;16.67;62.02;102253.66;4948292;28;124227;-68
2022/01/01 00:38:37;;;;;;;48.53;25.65;;;;;;;16.66;61.90;102257.28;4948427;28;123395;-70
2022/01/01 00:41:04;;;;;;;49.33;24.52;;;;;;;16.66;61.90;102251.94;4949607;28;114641;-70
2022/01/01 00:43:31;;;;;;;53.28;25.27;;;;;;;16.67;61.96;102259.00;4946998;28;114328;-69
2022/01/01 00:45:58;;;;;;;43.10;23.10;;;;;;;16.65;61.98;102256.44;4947924;28;124129;-69
2022/01/01 00:48:25;;;;;;;43.15;22.15;;;;;;;16.65;61.75;102255.53;4948476;28;123242;-69
2022/01/01 00:50:52;;;;;;;45.10;22.67;;;;;;;16.65;61.83;102255.53;4948054;28;116241;-69
2022/01/01 00:53:19;;;;;;;39.13;21.25;;;;;;;16.67;62.11;102248.31;4948395;28;114858;-69
2022/01/01 00:55:46;;;;;;;38.38;20.50;;;;;;;16.67;62.13;102253.66;4948148;28;124262;-69
2022/01/01 00:58:14;;;;;;;37.92;19.20;;;;;;;16.68;62.08;102239.34;4947124;28;122772;-69
2022/01/01 01:00:41;;;;;;;37.53;18.48;;;;;;;16.68;61.93;102239.34;4950674;28;113739;-70
2022/01/01 01:03:13;;;;;;;37.58;17.85;;;;;;;16.67;62.02;102242.94;4951736;28;114390;-70
2022/01/01 01:05:42;;;;;;;35.78;17.15;;;;;;;16.68;61.94;102245.56;4949838;28;125177;-69
2022/01/01 01:08:11;;;;;;;28.67;15.07;;;;;;;16.68;62.07;102250.06;4950220;28;122881;-69
2022/01/01 01:10:39;;;;;;;32.17;14.95;;;;;;;16.71;62.05;102255.25;4951428;28;113777;-69
2022/01/01 01:13:07;;;;;;;28.35;13.65;;;;;;;16.70;62.03;102248.16;4950457;28;113790;-69
2022/01/01 01:15:35;;;;;;;30.17;13.50;;;;;;;16.71;62.08;102261.47;4951330;28;125398;-70
2022/01/01 01:18:04;;;;;;;31.27;13.65;;;;;;;16.72;61.96;102267.69;4951387;28;124201;-69
2022/01/01 01:20:32;;;;;;;26.50;12.50;;;;;;;16.73;61.93;102264.09;4949789;28;114452;-68
2022/01/01 01:23:00;;;;;;;27.48;12.27;;;;;;;16.73;62.02;102269.44;4950039;28;114978;-68
2022/01/01 01:25:32;;;;;;;26.73;12.48;;;;;;;16.73;61.95;102272.09;4950969;28;124398;-68
2022/01/01 01:28:06;;;;;;;24.15;11.32;;;;;;;16.72;61.90;102273.03;4948567;28;123674;-68
2022/01/01 01:30:35;;;;;;;29.30;11.40;;;;;;;16.72;62.06;102278.38;4946534;28;118774;-68
2022/01/01 01:33:03;;;;;;;25.50;10.52;;;;;;;16.75;62.11;102272.91;4949092;28;119096;-68
2022/01/01 01:35:31;;;;;;;22.48;9.55;;;;;;;16.76;61.91;102265.72;4948254;28;123267;-68
2022/01/01 01:37:59;;;;;;;21.40;10.10;;;;;;;16.76;61.94;102274.63;4941329;28;124724;-68
2022/01/01 01:40:27;;;;;;;20.55;9.55;;;;;;;16.75;61.86;102272.91;4947875;28;120497;-68
2022/01/01 01:42:54;;;;;;;22.80;9.55;;;;;;;16.76;61.92;102279.97;4948604;28;120048;-69
2022/01/01 01:45:27;;;;;;;23.75;9.45;;;;;;;16.76;61.94;102269.28;4948769;28;123689;-68
2022/01/01 01:47:54;;;;;;;21.50;9.85;;;;;;;16.76;62.00;102277.28;4947698;28;124169;-68
2022/01/01 01:50:21;;;;;;;24.80;9.70;;;;;;;16.76;61.85;102279.97;4932694;28;119120;-68
2022/01/01 01:52:54;;;;;;;24.58;9.38;;;;;;;16.76;62.06;102279.97;4953516;28;119979;-68
2022/01/01 01:55:21;;;;;;;20.90;8.93;;;;;;;16.74;61.92;102287.19;4952233;28;125562;-68
2022/01/01 01:57:49;;;;;;;20.70;8.73;;;;;;;16.72;62.08;102283.75;4952816;28;124083;-68
2022/01/01 02:00:44;;;;;;;21.48;8.25;;;;;;;16.72;61.94;102294.44;4953558;28;119255;-69
2022/01/01 02:03:09;;;;;;;21.92;8.30;;;;;;;16.71;61.91;102298.06;4945453;28;117909;-70
2022/01/01 02:05:38;;;;;;;19.88;8.38;;;;;;;16.72;61.86;102305.16;4947899;28;124547;-69
2022/01/01 02:08:06;;;;;;;23.17;8.40;;;;;;;16.72;61.99;102300.66;4948452;28;123756;-69
2022/01/01 02:10:34;;;;;;;22.15;8.48;;;;;;;16.72;61.94;102299.78;4948179;28;118780;-69
2022/01/01 02:13:12;;;;;;;23.15;8.02;;;;;;;16.73;61.70;102304.22;4948289;28;118998;-69
2022/01/01 02:18:09;;;;;;;19.48;8.05;;;;;;;16.73;61.95;102309.56;4947983;28;124005;-69
2022/01/01 02:20:36;;;;;;;22.20;7.90;;;;;;;16.71;61.65;102298.94;4945923;28;118286;-69
2022/01/01 02:23:05;;;;;;;19.70;8.18;;;;;;;16.72;61.83;102299.78;4946760;28;118124;-69
2022/01/01 02:25:32;;;;;;;17.88;7.85;;;;;;;16.73;61.93;102306.91;4945189;28;123875;-69
2022/01/01 02:27:59;;;;;;;19.92;8.05;;;;;;;16.74;61.81;102287.19;4947748;28;123953;-69
2022/01/01 02:30:28;;;;;;;19.40;7.53;;;;;;;16.75;61.82;102288.94;4945188;28;119348;-70
2022/01/01 02:32:55;;;;;;;20.77;7.50;;;;;;;16.76;61.72;102285.31;4946164;28;119690;-69
2022/01/01 02:35:22;;;;;;;16.95;7.63;;;;;;;16.76;61.85;102279.97;4945849;28;123966;-69
2022/01/01 02:37:50;;;;;;;20.27;8.13;;;;;;;16.78;61.87;102291.47;4946479;28;123907;-68
2022/01/01 02:40:17;;;;;;;21.05;7.65;;;;;;;16.77;61.80;102281.72;4947719;28;119929;-69
2022/01/01 02:42:44;;;;;;;15.52;7.40;;;;;;;16.78;61.78;102275.41;4947375;28;119010;-68
2022/01/01 02:45:13;;;;;;;18.15;7.43;;;;;;;16.78;61.74;102280.75;4947408;28;124114;-69
2022/01/01 02:47:42;;;;;;;17.30;7.60;;;;;;;16.78;61.73;102288.78;4928644;28;124696;-68
2022/01/01 02:50:09;;;;;;;18.33;7.15;;;;;;;16.77;61.92;102281.72;4947036;28;119108;-68
2022/01/01 02:52:38;;;;;;;20.40;7.60;;;;;;;16.77;61.79;102281.72;4947472;28;96777;-68
2022/01/01 02:55:07;;;;;;;21.13;7.55;;;;;;;16.77;62.00;102276.38;4946144;28;125352;-68
2022/01/01 02:57:34;;;;;;;18.30;6.93;;;;;;;16.76;61.80;102274.63;4944663;28;123738;-68
2022/01/01 03:00:01;;;;;;;17.38;6.75;;;;;;;16.75;61.76;102288.94;4946919;28;119348;-68
2022/01/01 03:02:28;;;;;;;16.85;6.57;;;;;;;16.76;61.93;102289.81;4947080;28;118986;-68
2022/01/01 03:04:55;;;;;;;16.55;6.35;;;;;;;16.74;61.87;102285.41;4931467;28;122945;-68
2022/01/01 03:07:22;;;;;;;20.08;7.43;;;;;;;16.74;61.91;102285.41;4946771;28;125290;-68
2022/01/01 03:09:52;;;;;;;16.20;6.90;;;;;;;16.76;61.95;102274.63;4946831;28;119342;-68
2022/01/01 03:12:19;;;;;;;15.73;6.35;;;;;;;16.77;61.88;102264.81;4947236;28;118500;-68
2022/01/01 03:14:46;;;;;;;18.05;7.13;;;;;;;16.77;61.92;102254.97;4946677;28;124833;-68
2022/01/01 03:17:13;;;;;;;14.43;6.00;;;;;;;16.78;61.98;102256.69;4942834;28;124082;-68
2022/01/01 03:19:40;;;;;;;17.63;6.97;;;;;;;16.77;61.92;102254.09;4946618;28;120523;-68
2022/01/01 03:22:07;;;;;;;13.35;6.50;;;;;;;16.76;62.11;102253.22;4945266;28;121060;-68
2022/01/01 03:24:35;;;;;;;16.42;6.13;;;;;;;16.77;61.96;102260.31;4946183;28;123932;-68
2022/01/01 03:27:02;;;;;;;18.33;6.40;;;;;;;16.77;62.16;102260.31;4948164;28;125089;-68
2022/01/01 03:29:32;;;;;;;18.08;6.38;;;;;;;16.77;62.21;102249.59;4948376;28;119249;-69
2022/01/01 03:31:59;;;;;;;17.17;6.00;;;;;;;16.79;61.91;102262.91;4947362;28;118958;-68
2022/01/01 03:34:27;;;;;;;17.30;6.47;;;;;;;16.79;62.06;102253.06;4946989;28;124755;-68
2022/01/01 03:36:55;;;;;;;19.48;6.00;;;;;;;16.81;61.96;102258.34;4948222;28;124540;-68
2022/01/01 03:39:22;;;;;;;13.20;5.90;;;;;;;16.81;61.98;102259.22;4947992;28;119281;-68
2022/01/01 03:41:50;;;;;;;16.77;5.90;;;;;;;16.82;61.98;102263.69;4948102;28;119647;-68
2022/01/01 03:44:17;;;;;;;16.95;6.22;;;;;;;16.81;62.08;102251.19;4947046;28;124117;-69
2022/01/01 03:46:45;;;;;;;12.60;5.78;;;;;;;16.81;61.93;102256.53;4947830;28;123699;-68
2022/01/01 03:49:13;;;;;;;12.30;6.03;;;;;;;16.81;62.00;102255.69;4947595;28;119107;-68
2022/01/01 03:51:41;;;;;;;14.75;5.60;;;;;;;16.80;61.98;102244.13;4946460;28;116814;-68
2022/01/01 03:54:08;;;;;;;17.38;5.72;;;;;;;16.81;61.93;102251.19;4947631;28;124423;-68
2022/01/01 03:56:38;;;;;;;14.13;5.63;;;;;;;16.83;61.90;102253.81;4947545;28;124337;-68
2022/01/01 03:59:05;;;;;;;16.08;5.93;;;;;;;16.83;61.90;102243.97;4946493;28;119079;-68
2022/01/01 04:01:32;;;;;;;12.27;5.75;;;;;;;16.83;62.11;102243.97;4948037;28;118910;-68
2022/01/01 04:04:00;;;;;;;12.85;5.82;;;;;;;16.83;61.97;102249.34;4947785;28;124060;-68
2022/01/01 04:06:27;;;;;;;19.45;6.15;;;;;;;16.84;61.73;102240.38;4946563;28;122951;-68
2022/01/01 04:08:54;;;;;;;16.27;5.32;;;;;;;16.83;61.90;102246.66;4947595;28;120215;-68
2022/01/01 04:11:21;;;;;;;16.35;5.35;;;;;;;16.83;61.84;102243.97;4948219;28;120004;-68
2022/01/01 04:13:49;;;;;;;13.13;5.85;;;;;;;16.83;61.87;102233.28;4946046;28;123796;-68
2022/01/01 04:16:18;;;;;;;12.35;5.38;;;;;;;16.82;61.81;102230.63;4947122;28;124546;-68
2022/01/01 04:18:45;;;;;;;12.77;5.53;;;;;;;16.82;61.90;102233.31;4947560;28;119027;-68
2022/01/01 04:21:14;;;;;;;14.60;5.20;;;;;;;16.83;61.91;102238.63;4947246;28;118843;-72
2022/01/01 04:23:43;;;;;;;13.77;5.65;;;;;;;16.83;61.64;102238.63;4945953;28;123801;-68
2022/01/01 04:26:10;;;;;;;14.63;6.00;;;;;;;16.83;61.82;102237.78;4947690;28;123580;-68
2022/01/01 04:28:38;;;;;;;12.13;5.40;;;;;;;16.83;61.76;102249.34;4962319;28;118984;-68
2022/01/01 04:31:05;;;;;;;14.38;5.15;;;;;;;16.82;61.58;102247.63;4928650;28;117977;-68
2022/01/01 04:33:32;;;;;;;14.30;5.82;;;;;;;16.82;61.83;102246.69;4947499;28;124132;-68
2022/01/01 04:35:59;;;;;;;16.08;5.72;;;;;;;16.83;61.95;102249.34;4948588;28;124834;-67
2022/01/01 04:38:37;;;;;;;12.70;5.65;;;;;;;16.84;61.73;102250.19;4949225;28;119895;-68
2022/01/01 04:41:05;;;;;;;15.50;5.57;;;;;;;16.84;61.68;102245.72;4932536;28;117832;-68
2022/01/01 04:43:33;;;;;;;13.82;5.60;;;;;;;16.84;61.67;102251.09;4950070;28;124072;-68
2022/01/01 04:46:00;;;;;;;12.70;5.43;;;;;;;16.84;61.72;102245.72;4950020;28;123780;-67
2022/01/01 04:48:27;;;;;;;14.30;5.18;;;;;;;16.84;61.60;102251.09;4950580;28;119719;-68
2022/01/01 04:50:54;;;;;;;12.60;5.22;;;;;;;16.83;61.62;102254.69;4950454;28;119084;-67
2022/01/01 04:53:22;;;;;;;12.52;5.05;;;;;;;16.82;61.60;102242.28;4949643;28;125207;-67
2022/01/01 04:55:49;;;;;;;12.43;5.22;;;;;;;16.81;61.64;102245.84;4950042;28;123699;-67
2022/01/01 04:58:17;;;;;;;14.07;5.15;;;;;;;16.82;61.62;102258.31;4949649;28;120594;-68
2022/01/01 05:00:44;;;;;;;11.63;5.45;;;;;;;16.82;61.68;102258.31;4950108;28;120291;-68
2022/01/01 05:03:11;;;;;;;12.00;4.88;;;;;;;16.82;61.56;102255.66;4949702;28;123869;-68
2022/01/01 05:05:39;;;;;;;11.13;4.40;;;;;;;16.82;61.57;102255.66;4948612;28;124006;-68
2022/01/01 05:08:06;;;;;;;12.95;4.80;;;;;;;16.83;61.67;102249.34;4949676;28;119131;-68
2022/01/01 05:10:33;;;;;;;14.40;4.70;;;;;;;16.83;61.46;102253.81;4949753;28;119314;-68
2022/01/01 05:13:01;;;;;;;11.27;5.15;;;;;;;16.83;61.61;102246.66;4931665;28;123245;-68
2022/01/01 05:15:28;;;;;;;11.05;4.78;;;;;;;16.82;61.30;102247.63;4932798;28;124315;-68
2022/01/01 05:17:55;;;;;;;11.75;4.78;;;;;;;16.81;61.45;102251.19;4932846;28;119432;-68
2022/01/01 05:20:22;;;;;;;10.98;4.82;;;;;;;16.81;61.36;102261.91;4932623;28;119030;-67
2022/01/01 05:22:49;;;;;;;9.85;4.40;;;;;;;16.80;61.45;102259.28;4949346;28;124319;-68
2022/01/01 05:25:17;;;;;;;12.93;4.68;;;;;;;16.79;61.45;102269.13;4949775;28;123578;-68
2022/01/01 05:27:44;;;;;;;10.25;5.00;;;;;;;16.79;61.30;102269.13;4950140;28;119961;-68
2022/01/01 05:30:12;;;;;;;10.55;5.00;;;;;;;16.79;61.46;102269.13;4932273;28;119042;-68
2022/01/01 05:32:39;;;;;;;10.63;4.70;;;;;;;16.79;61.54;102279.84;4949873;28;123975;-68
2022/01/01 05:35:06;;;;;;;11.13;5.18;;;;;;;16.79;61.35;102263.78;4949519;28;123821;-68
2022/01/01 05:37:34;;;;;;;13.40;4.68;;;;;;;16.77;61.47;102271.00;4949634;28;119400;-68
2022/01/01 05:40:02;;;;;;;13.10;4.70;;;;;;;16.76;61.33;102263.91;4949978;28;118980;-68
2022/01/01 05:42:29;;;;;;;11.82;4.88;;;;;;;16.75;61.28;102264.88;4949954;28;124758;-68
2022/01/01 05:44:56;;;;;;;9.77;4.20;;;;;;;16.76;61.42;102266.59;4948793;28;123564;-68
2022/01/01 05:47:23;;;;;;;10.60;4.25;;;;;;;16.75;61.34;102256.84;4949468;28;120307;-68
2022/01/01 05:49:50;;;;;;;10.50;4.80;;;;;;;16.76;61.50;102263.91;4949411;28;119837;-68
2022/01/01 05:52:17;;;;;;;13.48;4.72;;;;;;;16.75;61.34;102256.84;4949272;28;123822;-68
2022/01/01 05:54:45;;;;;;;11.65;4.65;;;;;;;16.75;61.13;102267.56;4949135;28;123696;-68
2022/01/01 05:57:12;;;;;;;11.57;4.47;;;;;;;16.74;61.34;102271.16;4949447;28;120132;-68
2022/01/01 05:59:41;;;;;;;12.60;4.22;;;;;;;16.74;61.30;102271.16;4949565;28;118953;-68
2022/01/01 06:02:09;;;;;;;10.32;4.93;;;;;;;16.74;61.34;102276.50;4949291;28;124110;-68
2022/01/01 06:04:36;;;;;;;9.50;4.57;;;;;;;16.73;61.32;102278.31;4931984;28;124010;-68
2022/01/01 06:07:04;;;;;;;13.88;4.63;;;;;;;16.72;61.16;102270.34;4949633;28;119660;-68
2022/01/01 06:09:31;;;;;;;9.98;4.13;;;;;;;16.72;61.24;102273.03;4949417;28;118952;-68
2022/01/01 06:11:58;;;;;;;9.75;4.75;;;;;;;16.71;61.10;102260.63;4948477;28;124479;-68
2022/01/01 06:14:25;;;;;;;9.80;4.40;;;;;;;16.68;61.22;102261.63;4948976;28;124299;-68
2022/01/01 06:16:53;;;;;;;10.45;4.22;;;;;;;16.67;61.20;102256.34;4949328;28;119575;-68
2022/01/01 06:19:20;;;;;;;13.40;4.38;;;;;;;16.65;61.37;102260.88;4949276;28;118762;-67
2022/01/01 06:21:47;;;;;;;11.50;4.18;;;;;;;16.64;61.22;102253.81;4949061;28;124860;-68
2022/01/01 06:24:14;;;;;;;12.25;4.53;;;;;;;16.63;61.11;102257.41;4931091;28;122699;-68
2022/01/01 06:26:41;;;;;;;8.75;4.32;;;;;;;16.61;61.09;102259.31;4949052;28;119405;-68
2022/01/01 06:29:08;;;;;;;14.75;4.97;;;;;;;16.59;61.18;102256.69;4949652;28;119694;-68
2022/01/01 06:31:35;;;;;;;9.10;4.10;;;;;;;16.57;61.25;102252.38;4931351;28;123152;-68
2022/01/01 06:34:03;;;;;;;14.93;4.60;;;;;;;16.55;61.19;102253.31;4946647;28;122769;-68
2022/01/01 06:36:30;;;;;;;11.52;4.43;;;;;;;16.55;61.15;102255.97;4948547;28;120094;-68
2022/01/01 06:38:57;;;;;;;14.07;4.72;;;;;;;16.53;61.25;102260.53;4930094;28;120712;-68
2022/01/01 06:41:25;;;;;;;10.80;4.70;;;;;;;16.53;61.07;102268.56;4948136;28;124077;-68
2022/01/01 06:43:52;;;;;;;10.07;4.20;;;;;;;16.51;61.31;102270.44;4948417;28;123701;-68
2022/01/01 06:46:20;;;;;;;10.38;4.57;;;;;;;16.49;61.19;102272.31;4948500;28;119278;-68
2022/01/01 06:48:47;;;;;;;11.07;4.50;;;;;;;16.48;61.20;102275.97;4948654;28;118796;-68
2022/01/01 06:51:14;;;;;;;10.60;4.78;;;;;;;16.49;61.22;102280.34;4948173;28;124667;-68
2022/01/01 06:53:41;;;;;;;11.95;4.70;;;;;;;16.50;61.16;102276.75;4947071;28;124407;-68
2022/01/01 06:56:09;;;;;;;10.70;4.72;;;;;;;16.48;61.14;102275.97;4948409;28;119115;-68
2022/01/01 06:58:37;;;;;;;10.15;4.10;;;;;;;16.47;61.20;102274.22;4947661;28;119050;-68
2022/01/01 07:01:05;;;;;;;8.75;4.00;;;;;;;16.47;61.17;102274.22;4947374;28;124735;-68
2022/01/01 07:03:32;;;;;;;11.02;3.90;;;;;;;16.47;61.20;102281.38;4948190;28;125394;-68
2022/01/01 07:06:00;;;;;;;13.65;4.55;;;;;;;16.44;61.09;102279.69;4947350;28;118375;-68
2022/01/01 07:08:27;;;;;;;11.73;4.10;;;;;;;16.41;61.05;102279.84;4948409;28;119598;-68
2022/01/01 07:10:54;;;;;;;12.23;4.15;;;;;;;16.39;61.07;102276.38;4930452;28;124278;-68
2022/01/01 07:13:21;;;;;;;10.40;4.30;;;;;;;16.36;60.89;102287.22;4947378;28;124001;-67
2022/01/01 07:15:48;;;;;;;13.18;4.45;;;;;;;16.32;60.99;102280.28;4948270;28;120165;-68
2022/01/01 07:18:15;;;;;;;7.93;4.30;;;;;;;16.29;60.85;102285.75;4948844;28;120262;-68
2022/01/01 07:20:43;;;;;;;11.57;4.22;;;;;;;16.24;61.06;102282.44;4930282;28;123829;-68
2022/01/01 07:23:10;;;;;;;11.07;4.45;;;;;;;16.20;60.95;102287.06;4947914;28;124190;-68
2022/01/01 07:25:37;;;;;;;12.00;4.45;;;;;;;16.18;60.85;102304.97;4946446;28;121899;-68
2022/01/01 07:28:05;;;;;;;8.48;4.07;;;;;;;16.14;61.02;102301.56;4930195;28;119296;-68
2022/01/01 07:30:32;;;;;;;12.32;4.47;;;;;;;16.11;61.05;102303.50;4947418;28;124547;-68
2022/01/01 07:32:59;;;;;;;10.80;4.85;;;;;;;16.08;61.10;102308.97;4947400;28;124008;-68
2022/01/01 07:35:26;;;;;;;12.65;4.65;;;;;;;16.04;61.07;102302.91;4947286;28;119253;-68
2022/01/01 07:37:53;;;;;;;9.85;4.20;;;;;;;16.03;61.02;102300.28;4946457;28;118765;-68
2022/01/01 07:40:20;;;;;;;10.63;4.30;;;;;;;16.01;61.12;102296.81;4946559;28;124074;-68
2022/01/01 07:42:48;;;;;;;10.95;4.20;;;;;;;16.00;61.18;102295.97;4929838;28;123940;-68
2022/01/01 07:45:16;;;;;;;13.35;4.10;;;;;;;15.99;61.34;102304.91;4947957;28;119257;-68
2022/01/01 07:47:43;;;;;;;8.45;3.67;;;;;;;16.00;61.27;102306.66;4947777;28;118668;-68
2022/01/01 07:50:10;;;;;;;9.77;3.78;;;;;;;15.99;61.13;102310.25;4946975;28;124390;-68
2022/01/01 07:52:38;;;;;;;10.50;3.88;;;;;;;15.99;61.33;102304.91;4948146;28;123990;-68
2022/01/01 07:55:06;;;;;;;10.40;4.20;;;;;;;15.99;61.33;102304.91;4930173;28;119367;-68
2022/01/01 07:57:33;;;;;;;12.10;3.85;;;;;;;16.01;61.41;102303.06;4930430;28;118641;-68
2022/01/01 08:00:01;;;;;;;12.00;4.07;;;;;;;16.02;61.39;102310.13;4945311;28;124229;-68
2022/01/01 08:02:30;;;;;;;10.70;3.58;;;;;;;16.03;61.20;102311.88;4947589;28;124395;-68
2022/01/01 08:04:58;;;;;;;6.55;3.15;;;;;;;16.04;61.30;102313.59;4930067;28;119985;-68
2022/01/01 08:07:25;;;;;;;8.18;3.38;;;;;;;16.05;61.41;102315.34;4947863;28;118740;-68
2022/01/01 08:10:12;;;;;;;10.18;3.40;;;;;;;16.07;61.36;102318.81;4945186;28;124585;-68
2022/01/01 08:12:41;;;;;;;10.32;3.10;;;;;;;16.08;61.32;102331.22;4945832;28;122730;-68
2022/01/01 08:15:08;;;;;;;6.95;2.67;;;;;;;16.11;61.20;102328.44;4929526;28;122619;-68
2022/01/01 08:17:36;;;;;;;8.30;2.75;;;;;;;16.12;61.09;102326.63;4930214;28;118071;-68
2022/01/01 08:20:03;;;;;;;11.35;2.70;;;;;;;16.13;61.04;102329.22;4947184;28;124547;-69
2022/01/01 08:22:30;;;;;;;7.47;3.22;;;;;;;16.15;61.25;102324.69;4947305;28;123717;-69
2022/01/01 08:24:57;;;;;;;9.40;3.00;;;;;;;16.18;61.20;102320.13;4947481;28;119337;-69
2022/01/01 08:27:24;;;;;;;6.70;2.90;;;;;;;16.20;61.06;102313.78;4947477;28;118981;-69
2022/01/01 08:29:52;;;;;;;9.07;2.85;;;;;;;16.23;61.12;102312.78;4946925;28;124572;-69
2022/01/01 08:32:19;;;;;;;8.82;2.90;;;;;;;16.25;61.14;102317.09;4946484;28;124157;-69
2022/01/01 08:34:46;;;;;;;8.23;3.00;;;;;;;16.27;60.94;102309.03;4947045;28;119966;-70
2022/01/01 08:37:13;;;;;;;6.47;2.63;;;;;;;16.28;60.94;102306.28;4947538;28;118984;-69
2022/01/01 08:39:40;;;;;;;9.15;2.88;;;;;;;16.32;60.69;102312.34;4946661;28;124043;-71
2022/01/01 08:42:09;;;;;;;6.75;2.55;;;;;;;16.33;60.93;102309.63;4945242;28;124818;-70
2022/01/01 08:44:37;;;;;;;7.78;2.78;;;;;;;16.36;60.94;102308.59;4929325;28;119375;-71
2022/01/01 08:47:04;;;;;;;6.30;2.35;;;;;;;16.40;60.90;102309.31;4946901;28;119356;-70
2022/01/01 08:49:31;;;;;;;5.63;2.50;;;;;;;16.42;60.72;102308.31;4945970;28;124003;-71
2022/01/01 08:51:58;;;;;;;5.80;3.03;;;;;;;16.45;60.73;102312.66;4946972;28;123644;-71
2022/01/01 08:54:25;;;;;;;6.88;2.40;;;;;;;16.46;60.65;102309.94;4947103;28;120323;-71
2022/01/01 08:56:53;;;;;;;7.55;2.38;;;;;;;16.48;60.65;102318.75;4947633;28;118447;-71
2022/01/01 08:59:20;;;;;;;8.73;2.70;;;;;;;16.49;60.58;102317.78;4946416;28;123647;-71
2022/01/01 09:01:47;;;;;;;6.47;2.40;;;;;;;16.51;60.48;102318.59;4942859;28;123115;-71
2022/01/01 09:04:14;;;;;;;4.65;2.80;;;;;;;16.53;60.39;102323.88;4945849;28;123909;-71
2022/01/01 09:06:42;;;;;;;7.70;2.72;;;;;;;16.52;60.33;102325.69;4946412;28;120107;-71
2022/01/01 09:09:10;;;;;;;8.00;2.90;;;;;;;16.52;60.48;102325.69;4924762;28;123282;-71
2022/01/01 09:11:37;;;;;;;6.15;2.60;;;;;;;16.53;60.37;102322.06;4945140;28;125197;-71
2022/01/01 09:14:04;;;;;;;6.47;2.63;;;;;;;16.53;60.37;102316.69;4944913;28;118897;-71
2022/01/01 09:16:32;;;;;;;7.55;2.60;;;;;;;16.52;60.25;102325.69;4946035;28;119867;-71
2022/01/01 09:19:00;;;;;;;7.75;2.88;;;;;;;16.53;60.30;102311.34;4946574;28;125192;-71
2022/01/01 09:21:27;;;;;;;9.15;2.67;;;;;;;16.54;60.36;102315.78;4947675;28;124259;-71
2022/01/01 09:23:54;;;;;;;7.72;2.83;;;;;;;16.57;60.46;102316.56;4948967;28;119736;-71
2022/01/01 09:26:22;;;;;;;6.30;2.70;;;;;;;16.58;60.28;102329.03;4949691;28;118955;-71
2022/01/01 09:28:49;;;;;;;5.88;2.78;;;;;;;16.60;60.28;102324.47;4947606;28;123295;-71
2022/01/01 09:31:16;;;;;;;9.43;2.78;;;;;;;16.61;60.19;102318.16;4948762;28;124157;-70
2022/01/01 09:33:44;;;;;;;7.50;2.67;;;;;;;16.63;60.13;102321.63;4948114;28;119165;-71
2022/01/01 09:36:14;;;;;;;6.93;2.72;;;;;;;16.65;60.14;102319.75;4949482;28;119724;-71
2022/01/01 09:38:42;;;;;;;6.60;2.55;;;;;;;16.64;60.13;102320.69;4949446;28;123824;-69
2022/01/01 09:41:10;;;;;;;6.97;3.13;;;;;;;16.65;60.19;102319.75;4949121;28;123973;-69
2022/01/01 09:43:37;;;;;;;7.90;2.95;;;;;;;16.66;60.14;102318.81;4949477;28;119667;-68
2022/01/01 09:46:04;;;;;;;8.38;2.70;;;;;;;16.68;60.08;102315.13;4948733;28;118826;-69
2022/01/01 09:48:32;;;;;;;7.88;2.63;;;;;;;16.70;60.07;102304.34;4952016;28;123436;-69
2022/01/01 09:51:02;;;;;;;8.48;2.97;;;;;;;16.71;60.03;102308.78;4949672;28;124203;-69
2022/01/01 09:53:30;;;;;;;6.70;3.05;;;;;;;16.71;60.12;102298.06;4949911;28;120018;-70
2022/01/01 09:56:00;;;;;;;5.30;2.60;;;;;;;16.73;60.02;102306.91;4949864;28;119622;-70
2022/01/01 09:58:30;;;;;;;7.53;2.97;;;;;;;16.74;60.00;102319.31;4950000;28;126394;-69
2022/01/01 10:00:58;;;;;;;6.30;3.00;;;;;;;16.75;59.98;102305.00;4948168;28;123934;-69
2022/01/01 10:03:29;;;;;;;6.13;3.30;;;;;;;16.78;60.12;102304.84;4949139;28;120034;-69
2022/01/01 10:05:57;;;;;;;7.80;2.95;;;;;;;16.79;59.95;102306.59;4932395;28;118325;-70
2022/01/01 10:08:24;;;;;;;6.95;2.78;;;;;;;16.81;59.94;102304.69;4949047;28;123896;-69
2022/01/01 10:10:52;;;;;;;6.82;3.08;;;;;;;16.83;59.90;102302.00;4939363;28;123697;-70
2022/01/01 10:13:37;;;;;;;8.02;2.67;;;;;;;16.83;60.01;102294.81;4940077;28;119771;-71
2022/01/01 10:16:09;;;;;;;5.97;3.22;;;;;;;16.85;59.86;102295.63;4949967;28;119508;-70
2022/01/01 10:18:41;;;;;;;8.88;2.78;;;;;;;16.86;59.93;102292.00;4948703;28;124161;-70
2022/01/01 10:21:12;;;;;;;8.90;3.40;;;;;;;16.88;59.82;102295.47;4948409;28;122666;-73
2022/01/01 10:23:43;;;;;;;7.05;2.80;;;;;;;16.88;59.90;102295.47;4948336;28;119442;-69
2022/01/01 10:29:28;;;;;;;5.93;2.60;;;;;;;16.87;59.72;102272.31;4949751;28;124691;-71
2022/01/01 10:32:10;;;;;;;8.50;2.92;;;;;;;16.88;59.91;102255.34;4949499;28;123892;-72
2022/01/01 10:34:43;;;;;;;7.70;3.05;;;;;;;16.90;59.89;102256.13;4948010;28;118933;-71
2022/01/01 10:37:31;;;;;;;7.97;2.88;;;;;;;16.93;59.94;102250.63;4950048;28;119000;-71
2022/01/01 10:39:59;;;;;;;6.30;2.55;;;;;;;16.99;59.82;102248.56;4949000;28;124379;-70
2022/01/01 10:42:27;;;;;;;6.40;2.97;;;;;;;17.00;59.83;102250.31;4949251;28;123844;-71
2022/01/01 10:44:55;;;;;;;6.82;3.45;;;;;;;17.03;60.01;102250.19;4949380;28;118092;-70
2022/01/01 10:47:29;;;;;;;8.88;3.00;;;;;;;17.06;59.95;102244.66;4948901;28;120575;-69
2022/01/01 10:50:14;;;;;;;7.03;3.03;;;;;;;17.09;59.79;102231.13;4932358;28;123330;-71
2022/01/01 10:52:48;;;;;;;6.30;3.03;;;;;;;17.14;59.74;102242.47;4947974;28;124823;-69
2022/01/01 10:55:16;;;;;;;4.95;2.60;;;;;;;17.18;59.79;102238.69;4946505;28;119044;-69
2022/01/01 10:57:55;;;;;;;6.80;3.00;;;;;;;17.21;59.55;102237.66;4946620;28;118436;-70
2022/01/01 11:00:24;;;;;;;5.70;2.90;;;;;;;17.23;59.67;102231.28;4945160;28;123839;-70
2022/01/01 11:02:55;;;;;;;7.20;2.70;;;;;;;17.26;59.62;102239.16;4948167;28;124648;-70
2022/01/01 11:05:32;;;;;;;4.78;2.60;;;;;;;17.29;59.34;102228.31;4946948;28;118194;-70
2022/01/01 11:08:00;;;;;;;7.82;2.63;;;;;;;17.34;59.46;102221.84;4948442;28;118935;-70
2022/01/01 11:10:27;;;;;;;7.38;3.08;;;;;;;17.38;59.30;102218.06;4947866;28;124881;-71
2022/01/01 11:12:56;;;;;;;6.47;2.58;;;;;;;17.41;59.29;102220.59;4946101;28;124707;-70
2022/01/01 11:15:23;;;;;;;8.13;2.92;;;;;;;17.46;59.56;102226.56;4948065;28;119889;-70
2022/01/01 11:17:51;;;;;;;5.70;2.70;;;;;;;17.52;59.41;102226.25;4948038;28;119191;-70
2022/01/01 11:20:19;;;;;;;7.10;2.92;;;;;;;17.57;59.17;102207.25;4929489;28;124579;-70
2022/01/01 11:22:48;;;;;;;4.10;2.30;;;;;;;17.60;59.18;102207.09;4946981;28;123899;-71